createdAt,value
2022-12-24T00:01:45.811Z,22.52
2022-12-24T00:04:13.143Z,24.08
2022-12-24T00:06:40.439Z,16.13
2022-12-24T00:09:07.751Z,17.83
2022-12-24T00:11:35.079Z,13.48
2022-12-24T00:14:02.366Z,24.55
2022-12-24T00:16:29.679Z,19.88
2022-12-24T00:18:56.898Z,21.15
2022-12-24T00:21:24.140Z,14.23
2022-12-24T00:23:51.375Z,22.25
2022-12-24T00:26:18.628Z,21.15
2022-12-24T00:28:45.950Z,26.17
2022-12-24T00:31:15.056Z,18.50
2022-12-24T00:33:42.684Z,22.23
2022-12-24T00:36:10.228Z,20.40
2022-12-24T00:38:37.799Z,23.35
2022-12-24T00:41:06.115Z,15.45
2022-12-24T00:43:33.595Z,24.50
2022-12-24T00:46:01.134Z,23.23
2022-12-24T00:48:28.429Z,21.00
2022-12-24T00:50:55.699Z,12.30
2022-12-24T00:53:23.033Z,24.02
2022-12-24T00:55:50.394Z,17.25
2022-12-24T00:58:17.563Z,26.80
2022-12-24T01:00:45.800Z,24.08
2022-12-24T01:03:13.112Z,22.27
2022-12-24T01:05:40.502Z,33.28
2022-12-24T01:08:07.775Z,26.85
2022-12-24T01:10:34.991Z,20.58
2022-12-24T01:13:03.080Z,21.00
2022-12-24T01:15:30.526Z,15.35
2022-12-24T01:17:58.473Z,13.45
2022-12-24T01:20:31.423Z,24.40
2022-12-24T01:22:58.671Z,25.02
2022-12-24T01:25:25.830Z,20.65
2022-12-24T01:27:53.174Z,23.77
2022-12-24T01:30:20.553Z,18.00
2022-12-24T01:32:47.700Z,16.50
2022-12-24T01:35:15.191Z,30.05
2022-12-24T01:37:42.794Z,13.68
2022-12-24T01:40:33.595Z,20.65
2022-12-24T01:43:19.312Z,23.35
2022-12-24T01:45:51.062Z,25.63
2022-12-24T01:48:38.553Z,19.48
2022-12-24T01:51:08.846Z,17.27
2022-12-24T01:53:38.206Z,19.17
2022-12-24T01:56:06.068Z,22.58
2022-12-24T01:58:34.356Z,17.00
2022-12-24T02:01:01.579Z,10.45
2022-12-24T02:03:28.964Z,23.25
2022-12-24T02:05:57.730Z,25.23
2022-12-24T02:08:40.011Z,12.05
2022-12-24T02:11:18.012Z,21.88
2022-12-24T02:13:47.933Z,17.20
2022-12-24T02:16:21.930Z,12.93
2022-12-24T02:19:08.067Z,19.58
2022-12-24T02:21:43.491Z,32.65
2022-12-24T02:24:36.968Z,24.00
2022-12-24T02:27:22.897Z,23.50
2022-12-24T02:30:00.794Z,26.67
2022-12-24T02:32:44.642Z,19.85
2022-12-24T02:35:15.189Z,13.13
2022-12-24T02:37:45.267Z,10.20
2022-12-24T02:40:16.859Z,17.90
2022-12-24T02:42:47.139Z,25.45
2022-12-24T02:45:16.036Z,33.65
2022-12-24T02:47:44.413Z,31.60
2022-12-24T02:50:13.523Z,24.88
2022-12-24T02:52:42.465Z,15.80
2022-12-24T02:55:12.348Z,21.90
2022-12-24T02:57:54.889Z,24.95
2022-12-24T03:00:22.879Z,26.83
2022-12-24T03:03:07.637Z,21.38
2022-12-24T03:05:37.113Z,28.77
2022-12-24T03:08:11.527Z,27.25
2022-12-24T03:10:48.105Z,24.08
2022-12-24T03:13:16.647Z,22.33
2022-12-24T03:15:45.338Z,33.38
2022-12-24T03:18:14.664Z,28.25
2022-12-24T03:20:46.736Z,27.25
2022-12-24T03:23:14.239Z,23.98
2022-12-24T03:25:43.305Z,17.00
2022-12-24T03:28:11.405Z,20.10
2022-12-24T03:30:44.737Z,25.77
2022-12-24T03:33:12.769Z,18.10
2022-12-24T03:35:40.235Z,31.60
2022-12-24T03:38:07.422Z,18.63
2022-12-24T03:40:34.656Z,24.77
2022-12-24T03:43:01.810Z,23.35
2022-12-24T03:45:30.423Z,25.30
2022-12-24T03:47:59.017Z,27.13
2022-12-24T03:50:26.246Z,25.50
2022-12-24T03:52:53.535Z,17.20
2022-12-24T03:55:20.797Z,25.85
2022-12-24T03:57:47.917Z,26.77
2022-12-24T04:00:15.326Z,26.25
2022-12-24T04:02:42.730Z,37.83
2022-12-24T04:05:14.147Z,28.98
2022-12-24T04:07:41.338Z,30.33
2022-12-24T04:10:09.156Z,32.80
2022-12-24T04:12:36.612Z,26.17
2022-12-24T04:15:03.870Z,27.15
2022-12-24T04:17:31.111Z,26.23
2022-12-24T04:19:58.298Z,24.70
2022-12-24T04:22:25.501Z,29.77
2022-12-24T04:24:52.772Z,20.27
2022-12-24T04:27:20.648Z,29.17
2022-12-24T04:29:49.196Z,30.45
2022-12-24T04:32:16.541Z,37.88
2022-12-24T04:34:43.785Z,24.10
2022-12-24T04:37:11.037Z,37.72
2022-12-24T04:39:38.263Z,27.65
2022-12-24T04:42:05.507Z,28.55
2022-12-24T04:44:32.728Z,30.35
2022-12-24T04:46:59.892Z,28.73
2022-12-24T04:49:27.130Z,20.15
2022-12-24T04:51:54.462Z,36.22
2022-12-24T04:54:21.729Z,30.70
2022-12-24T04:56:48.886Z,29.23
2022-12-24T04:59:16.113Z,28.88
2022-12-24T05:01:43.376Z,34.40
2022-12-24T05:04:11.282Z,24.48
2022-12-24T05:06:38.644Z,35.22
2022-12-24T05:09:05.904Z,23.35
2022-12-24T05:11:33.145Z,31.27
2022-12-24T05:14:00.404Z,29.05
2022-12-24T05:16:27.885Z,25.75
2022-12-24T05:18:55.157Z,23.75
2022-12-24T05:21:23.809Z,24.83
2022-12-24T05:24:09.600Z,26.05
2022-12-24T05:26:45.861Z,17.77
2022-12-24T05:29:13.279Z,15.40
2022-12-24T05:31:40.980Z,27.67
2022-12-24T05:34:08.381Z,28.50
2022-12-24T05:36:35.641Z,10.68
2022-12-24T05:39:02.876Z,16.60
2022-12-24T05:41:30.191Z,17.13
2022-12-24T05:43:57.548Z,20.27
2022-12-24T05:46:25.341Z,27.65
2022-12-24T05:48:53.261Z,23.52
2022-12-24T05:51:22.334Z,22.02
2022-12-24T05:53:50.327Z,24.58
2022-12-24T05:56:19.615Z,24.27
2022-12-24T05:58:46.901Z,15.45
2022-12-24T06:01:14.761Z,21.95
2022-12-24T06:03:42.230Z,18.52
2022-12-24T06:06:10.840Z,24.20
2022-12-24T06:08:38.788Z,27.58
2022-12-24T06:11:07.811Z,22.27
2022-12-24T06:13:35.157Z,27.50
2022-12-24T06:16:03.877Z,13.80
2022-12-24T06:18:32.366Z,20.80
2022-12-24T06:21:00.059Z,28.13
2022-12-24T06:23:29.105Z,31.45
2022-12-24T06:25:57.475Z,16.25
2022-12-24T06:28:25.055Z,28.55
2022-12-24T06:30:57.152Z,31.65
2022-12-24T06:33:28.435Z,34.10
2022-12-24T06:35:55.691Z,23.27
2022-12-24T06:38:22.934Z,18.23
2022-12-24T06:40:50.149Z,28.25
2022-12-24T06:43:17.480Z,30.15
2022-12-24T06:45:48.461Z,33.88
2022-12-24T06:48:16.550Z,32.75
2022-12-24T06:50:44.083Z,33.03
2022-12-24T06:53:12.298Z,22.70
2022-12-24T06:55:39.553Z,27.05
2022-12-24T06:58:06.973Z,19.52
2022-12-24T07:00:34.461Z,17.83
2022-12-24T07:03:01.716Z,25.77
2022-12-24T07:05:29.482Z,32.22
2022-12-24T07:07:57.053Z,40.45
2022-12-24T07:10:24.360Z,41.20
2022-12-24T07:12:51.548Z,30.08
2022-12-24T07:15:18.706Z,20.80
2022-12-24T07:17:45.932Z,43.20
2022-12-24T07:20:15.179Z,57.20
2022-12-24T07:22:43.290Z,29.25
2022-12-24T07:25:14.150Z,37.95
2022-12-24T07:27:41.581Z,33.15
2022-12-24T07:30:09.392Z,36.55
2022-12-24T07:32:36.595Z,34.63
2022-12-24T07:35:04.069Z,23.25
2022-12-24T07:37:31.299Z,29.30
2022-12-24T07:39:59.855Z,24.88
2022-12-24T07:42:27.678Z,36.35
2022-12-24T07:44:55.511Z,32.45
2022-12-24T07:47:22.697Z,38.70
2022-12-24T07:49:50.105Z,29.10
2022-12-24T07:52:17.322Z,34.25
2022-12-24T07:54:44.537Z,32.42
2022-12-24T07:57:11.779Z,30.65
2022-12-24T07:59:39.200Z,18.45
2022-12-24T08:02:08.856Z,22.25
2022-12-24T08:04:38.495Z,19.85
2022-12-24T08:07:06.400Z,28.55
2022-12-24T08:09:34.171Z,37.97
2022-12-24T08:12:02.578Z,24.60
2022-12-24T08:14:30.425Z,41.33
2022-12-24T08:16:57.679Z,27.85
2022-12-24T08:19:25.130Z,20.85
2022-12-24T08:21:52.359Z,21.55
2022-12-24T08:24:19.613Z,31.60
2022-12-24T08:26:46.831Z,23.75
2022-12-24T08:29:14.052Z,25.80
2022-12-24T08:31:41.400Z,31.25
2022-12-24T08:34:09.094Z,20.92
2022-12-24T08:36:37.641Z,19.35
2022-12-24T08:39:05.001Z,19.02
2022-12-24T08:41:32.629Z,27.90
2022-12-24T08:43:59.957Z,34.40
2022-12-24T08:46:27.297Z,37.08
2022-12-24T08:48:54.499Z,22.33
2022-12-24T08:51:21.801Z,22.35
2022-12-24T08:53:49.343Z,30.90
2022-12-24T08:56:16.608Z,37.92
2022-12-24T08:58:44.031Z,21.95
2022-12-24T09:01:12.618Z,32.80
2022-12-24T09:03:40.173Z,25.00
2022-12-24T09:06:07.801Z,16.80
2022-12-24T09:08:35.620Z,27.77
2022-12-24T09:11:04.208Z,31.50
2022-12-24T09:13:31.395Z,23.45
2022-12-24T09:15:59.552Z,24.88
2022-12-24T09:18:26.952Z,34.72
2022-12-24T09:20:59.486Z,32.53
2022-12-24T09:23:26.790Z,29.80
2022-12-24T09:25:54.269Z,21.60
2022-12-24T09:28:21.922Z,42.00
2022-12-24T09:30:57.664Z,26.17
2022-12-24T09:33:24.966Z,37.80
2022-12-24T09:35:55.359Z,23.92
2022-12-24T09:38:23.055Z,35.15
2022-12-24T09:40:50.648Z,24.35
2022-12-24T09:43:19.412Z,26.50
2022-12-24T09:46:07.619Z,32.20
2022-12-24T09:48:36.776Z,22.88
2022-12-24T09:51:07.017Z,25.17
2022-12-24T09:53:34.170Z,25.13
2022-12-24T09:56:02.759Z,21.45
2022-12-24T09:58:38.291Z,24.15
2022-12-24T10:01:05.752Z,28.73
2022-12-24T10:03:33.454Z,24.27
2022-12-24T10:06:13.755Z,30.67
2022-12-24T10:08:49.094Z,24.65
2022-12-24T10:11:30.951Z,20.23
2022-12-24T10:14:04.002Z,25.83
2022-12-24T10:16:37.325Z,19.70
2022-12-24T10:19:33.816Z,21.13
2022-12-24T10:22:12.785Z,26.65
2022-12-24T10:24:50.085Z,31.17
2022-12-24T10:27:19.907Z,29.05
2022-12-24T10:29:51.754Z,23.45
2022-12-24T10:32:23.433Z,23.50
2022-12-24T10:34:59.437Z,19.70
2022-12-24T10:37:28.957Z,31.20
2022-12-24T10:39:57.500Z,28.25
2022-12-24T10:42:27.019Z,35.42
2022-12-24T10:45:00.782Z,29.08
2022-12-24T10:47:28.402Z,23.70
2022-12-24T10:50:01.019Z,20.83
2022-12-24T10:52:35.746Z,28.38
2022-12-24T10:55:08.243Z,25.75
2022-12-24T10:57:35.839Z,24.55
2022-12-24T11:00:03.373Z,24.58
2022-12-24T11:02:35.139Z,27.40
2022-12-24T11:05:04.128Z,26.48
2022-12-24T11:07:32.082Z,17.90
2022-12-24T11:10:03.763Z,23.35
2022-12-24T11:12:43.379Z,22.23
2022-12-24T11:15:23.162Z,21.15
2022-12-24T11:18:03.939Z,21.60
2022-12-24T11:20:32.947Z,21.55
2022-12-24T11:23:00.758Z,16.63
2022-12-24T11:25:34.717Z,26.10
2022-12-24T11:28:22.017Z,28.85
2022-12-24T11:31:04.674Z,24.60
2022-12-24T11:36:03.420Z,26.13
2022-12-24T11:38:32.632Z,17.90
2022-12-24T11:41:11.875Z,17.65
2022-12-24T11:43:44.492Z,23.48
2022-12-24T11:46:13.960Z,22.27
2022-12-24T11:48:41.304Z,22.50
2022-12-24T11:51:19.266Z,18.85
2022-12-24T11:54:25.360Z,11.50
2022-12-24T11:56:54.412Z,19.15
2022-12-24T11:59:47.471Z,17.40
2022-12-24T12:02:23.804Z,18.83
2022-12-24T12:04:52.651Z,19.95
2022-12-24T12:07:23.529Z,20.55
2022-12-24T12:09:58.170Z,17.52
2022-12-24T12:12:27.233Z,21.67
2022-12-24T12:14:56.772Z,17.88
2022-12-24T12:17:35.203Z,21.45
2022-12-24T12:20:21.163Z,15.60
2022-12-24T12:22:51.441Z,14.75
2022-12-24T12:25:31.795Z,16.90
2022-12-24T12:28:00.905Z,10.02
2022-12-24T12:30:29.745Z,15.43
2022-12-24T12:32:59.757Z,21.35
2022-12-24T12:35:30.477Z,20.70
2022-12-24T12:37:59.334Z,19.75
2022-12-24T12:40:35.598Z,11.68
2022-12-24T12:43:23.054Z,16.45
2022-12-24T12:46:05.281Z,22.13
2022-12-24T12:48:41.079Z,21.20
2022-12-24T12:51:29.479Z,18.80
2022-12-24T12:54:21.087Z,22.48
2022-12-24T12:56:50.945Z,23.20
2022-12-24T12:59:22.322Z,19.77
2022-12-24T13:01:54.951Z,17.42
2022-12-24T13:04:22.285Z,16.05
2022-12-24T13:07:07.983Z,17.40
2022-12-24T13:09:44.379Z,17.92
2022-12-24T13:12:11.529Z,20.85
2022-12-24T13:14:53.333Z,15.75
2022-12-24T13:17:20.662Z,17.00
2022-12-24T13:20:09.421Z,26.92
2022-12-24T13:22:37.013Z,19.98
2022-12-24T13:25:04.727Z,15.45
2022-12-24T13:27:33.504Z,18.65
2022-12-24T13:30:19.579Z,23.10
2022-12-24T13:32:48.488Z,14.93
2022-12-24T13:35:21.741Z,19.50
2022-12-24T13:37:49.686Z,21.10
2022-12-24T13:40:18.115Z,36.63
2022-12-24T13:43:09.076Z,44.72
2022-12-24T13:45:39.358Z,24.30
2022-12-24T13:48:06.561Z,21.40
2022-12-24T13:50:50.842Z,16.90
2022-12-24T13:53:40.423Z,21.15
2022-12-24T13:56:20.844Z,24.27
2022-12-24T13:58:49.651Z,17.88
2022-12-24T14:01:37.178Z,19.65
2022-12-24T14:04:06.068Z,20.30
2022-12-24T14:06:34.531Z,17.55
2022-12-24T14:09:13.105Z,18.13
2022-12-24T14:11:59.091Z,17.45
2022-12-24T14:14:29.731Z,20.80
2022-12-24T14:17:01.931Z,16.92
2022-12-24T14:19:37.074Z,20.13
2022-12-24T14:22:26.405Z,17.42
2022-12-24T14:24:59.741Z,21.70
2022-12-24T14:27:33.787Z,18.30
2022-12-24T14:30:18.750Z,13.32
2022-12-24T14:32:46.184Z,17.50
2022-12-24T14:35:21.635Z,20.90
2022-12-24T14:38:05.251Z,11.77
2022-12-24T14:40:34.365Z,16.90
2022-12-24T14:43:01.657Z,19.15
2022-12-24T14:45:32.888Z,17.73
2022-12-24T14:48:17.982Z,18.30
2022-12-24T14:51:03.979Z,16.42
2022-12-24T14:53:39.851Z,17.98
2022-12-24T14:56:10.257Z,21.13
2022-12-24T15:01:20.692Z,22.30
2022-12-24T15:04:00.049Z,23.85
2022-12-24T15:06:27.365Z,28.55
2022-12-24T15:08:54.634Z,25.67
2022-12-24T15:11:22.995Z,19.60
2022-12-24T15:14:04.029Z,28.60
2022-12-24T15:16:40.117Z,19.40
2022-12-24T15:19:21.442Z,15.25
2022-12-24T15:21:48.851Z,19.38
2022-12-24T15:24:32.241Z,28.52
2022-12-24T15:27:00.353Z,21.98
2022-12-24T15:29:37.831Z,24.20
2022-12-24T15:32:05.312Z,20.67
2022-12-24T15:34:59.287Z,27.08
2022-12-24T15:37:53.706Z,32.72
2022-12-24T15:40:22.540Z,33.42
2022-12-24T15:42:49.860Z,28.45
2022-12-24T15:45:28.405Z,27.40
2022-12-24T15:47:59.970Z,28.65
2022-12-24T15:50:45.132Z,39.88
2022-12-24T15:53:19.310Z,22.20
2022-12-24T15:56:03.081Z,25.23
2022-12-24T16:02:03.086Z,25.52
2022-12-24T16:04:30.500Z,24.88
2022-12-24T16:06:59.449Z,36.70
2022-12-24T16:10:13.091Z,24.95
2022-12-24T16:12:40.351Z,23.67
2022-12-24T16:15:15.238Z,25.10
2022-12-24T16:17:42.457Z,28.52
2022-12-24T16:20:17.563Z,27.73
2022-12-24T16:22:46.534Z,27.38
2022-12-24T16:25:21.176Z,27.83
2022-12-24T16:27:48.357Z,32.60
2022-12-24T16:30:15.682Z,32.05
2022-12-24T16:32:43.037Z,21.27
2022-12-24T16:35:26.940Z,27.73
2022-12-24T16:37:54.660Z,26.35
2022-12-24T16:40:26.866Z,28.85
2022-12-24T16:43:13.683Z,37.70
2022-12-24T16:45:40.963Z,27.15
2022-12-24T16:48:09.211Z,30.83
2022-12-24T16:50:36.951Z,42.25
2022-12-24T16:53:04.270Z,33.70
2022-12-24T16:55:31.471Z,43.38
2022-12-24T16:58:08.510Z,30.13
2022-12-24T17:00:36.233Z,42.10
2022-12-24T17:03:03.599Z,31.17
2022-12-24T17:05:31.270Z,28.95
2022-12-24T17:08:01.625Z,24.88
2022-12-24T17:12:56.533Z,35.97
2022-12-24T17:15:23.747Z,34.13
2022-12-24T17:17:51.160Z,29.00
2022-12-24T17:20:23.819Z,38.35
2022-12-24T17:22:51.630Z,29.90
2022-12-24T17:25:18.923Z,33.22
2022-12-24T17:27:46.153Z,34.30
2022-12-24T17:30:13.427Z,27.85
2022-12-24T17:32:40.666Z,36.30
2022-12-24T17:35:08.264Z,34.13
2022-12-24T17:37:35.571Z,34.17
2022-12-24T17:40:02.896Z,34.63
2022-12-24T17:42:30.167Z,28.10
2022-12-24T17:44:57.521Z,28.02
2022-12-24T17:47:24.752Z,29.50
2022-12-24T17:49:51.982Z,27.70
2022-12-24T17:52:19.164Z,34.15
2022-12-24T17:54:46.319Z,33.90
2022-12-24T17:57:13.862Z,31.70
2022-12-24T17:59:41.032Z,30.20
2022-12-24T18:02:10.436Z,37.17
2022-12-24T18:04:37.724Z,38.67
2022-12-24T18:07:05.011Z,30.80
2022-12-24T18:09:32.239Z,39.42
2022-12-24T18:11:59.658Z,36.53
2022-12-24T18:14:27.064Z,34.05
2022-12-24T18:16:54.305Z,30.75
2022-12-24T18:19:21.586Z,33.10
2022-12-24T18:21:48.817Z,27.83
2022-12-24T18:24:15.987Z,33.88
2022-12-24T18:26:44.463Z,39.25
2022-12-24T18:29:12.458Z,37.95
2022-12-24T18:31:39.821Z,42.08
2022-12-24T18:34:09.196Z,32.15
2022-12-24T18:36:36.483Z,31.60
2022-12-24T18:39:03.852Z,43.08
2022-12-24T18:41:31.295Z,37.20
2022-12-24T18:44:00.344Z,43.08
2022-12-24T18:46:29.709Z,45.15
2022-12-24T18:48:59.477Z,40.47
2022-12-24T18:51:29.066Z,38.42
2022-12-24T18:53:56.360Z,34.38
2022-12-24T18:56:29.933Z,35.10
2022-12-24T18:58:58.307Z,34.25
2022-12-24T19:01:27.174Z,34.65
2022-12-24T19:03:54.794Z,42.40
2022-12-24T19:06:24.150Z,41.28
2022-12-24T19:09:00.404Z,28.35
2022-12-24T19:11:29.236Z,32.83
2022-12-24T19:13:58.102Z,39.75
2022-12-24T19:16:25.882Z,29.70
2022-12-24T19:18:53.239Z,49.53
2022-12-24T19:21:20.491Z,41.47
2022-12-24T19:23:48.118Z,44.50
2022-12-24T19:26:16.341Z,37.88
2022-12-24T19:28:43.802Z,40.20
2022-12-24T19:31:13.006Z,41.97
2022-12-24T19:33:44.546Z,34.28
2022-12-24T19:36:12.980Z,38.72
2022-12-24T19:38:40.206Z,37.25
2022-12-24T19:41:07.484Z,44.53
2022-12-24T19:43:37.467Z,40.05
2022-12-24T19:46:05.087Z,45.42
2022-12-24T19:48:32.438Z,45.47
2022-12-24T19:51:03.749Z,40.15
2022-12-24T19:53:31.255Z,64.13
2022-12-24T19:55:58.965Z,54.53
2022-12-24T19:58:27.112Z,37.33
2022-12-24T20:00:54.501Z,44.03
2022-12-24T20:03:22.245Z,40.10
2022-12-24T20:05:49.653Z,46.78
2022-12-24T20:08:17.131Z,31.27
2022-12-24T20:10:45.097Z,46.53
2022-12-24T20:13:12.355Z,39.28
2022-12-24T20:15:40.349Z,32.58
2022-12-24T20:18:08.176Z,44.88
2022-12-24T20:20:35.795Z,21.13
2022-12-24T20:23:03.438Z,30.58
2022-12-24T20:25:31.191Z,40.50
2022-12-24T20:27:58.498Z,40.08
2022-12-24T20:30:25.760Z,48.60
2022-12-24T20:32:54.384Z,41.60
2022-12-24T20:35:21.859Z,34.53
2022-12-24T20:37:52.043Z,32.53
2022-12-24T20:40:19.646Z,41.97
2022-12-24T20:42:46.865Z,44.10
2022-12-24T20:45:14.145Z,35.45
2022-12-24T20:47:41.535Z,43.13
2022-12-24T20:50:09.560Z,43.42
2022-12-24T20:52:37.005Z,25.35
2022-12-24T20:55:04.404Z,41.30
2022-12-24T20:57:36.488Z,37.33
2022-12-24T21:00:05.299Z,37.38
2022-12-24T21:02:32.714Z,40.00
2022-12-24T21:05:02.473Z,37.15
2022-12-24T21:07:30.173Z,39.58
2022-12-24T21:09:57.541Z,45.65
2022-12-24T21:12:43.321Z,40.25
2022-12-24T21:15:11.202Z,35.90
2022-12-24T21:17:38.537Z,41.13
2022-12-24T21:20:06.265Z,43.92
2022-12-24T21:22:33.512Z,46.47
2022-12-24T21:25:00.668Z,41.95
2022-12-24T21:27:29.121Z,38.67
2022-12-24T21:29:59.000Z,39.00
2022-12-24T21:32:26.318Z,30.17
2022-12-24T21:34:53.531Z,19.27
2022-12-24T21:37:20.853Z,37.20
2022-12-24T21:39:48.037Z,41.63
2022-12-24T21:42:15.401Z,31.90
2022-12-24T21:44:42.676Z,39.25
2022-12-24T21:47:10.981Z,33.22
2022-12-24T21:49:57.601Z,36.20
2022-12-24T21:52:24.831Z,37.65
2022-12-24T21:54:52.284Z,37.35
2022-12-24T21:57:38.501Z,45.45
2022-12-24T22:00:21.796Z,41.78
2022-12-24T22:02:53.400Z,41.92
2022-12-24T22:05:20.896Z,32.65
2022-12-24T22:08:06.827Z,33.78
2022-12-24T22:10:52.585Z,34.88
2022-12-24T22:13:20.016Z,46.72
2022-12-24T22:15:48.723Z,33.25
2022-12-24T22:18:17.440Z,37.65
2022-12-24T22:20:46.664Z,32.80
2022-12-24T22:23:14.755Z,36.63
2022-12-24T22:25:43.687Z,37.90
2022-12-24T22:28:11.201Z,39.40
2022-12-24T22:30:40.296Z,31.00
2022-12-24T22:33:08.113Z,38.67
2022-12-24T22:35:42.343Z,41.30
2022-12-24T22:38:09.966Z,31.85
2022-12-24T22:40:39.514Z,35.20
2022-12-24T22:43:07.251Z,34.08
2022-12-24T22:45:34.431Z,43.33
2022-12-24T22:48:02.535Z,20.45
2022-12-24T22:50:29.663Z,30.58
2022-12-24T22:52:56.871Z,42.40
2022-12-24T22:55:24.382Z,38.50
2022-12-24T22:57:51.641Z,35.97
2022-12-24T23:00:37.682Z,39.85
2022-12-24T23:03:06.191Z,42.83
2022-12-24T23:05:33.691Z,39.58
2022-12-24T23:08:01.055Z,33.30
2022-12-24T23:10:28.164Z,38.55
2022-12-24T23:13:15.335Z,28.73
2022-12-24T23:15:42.961Z,36.92
2022-12-24T23:18:10.440Z,33.80
2022-12-24T23:20:42.322Z,32.58
2022-12-24T23:23:09.774Z,32.30
2022-12-24T23:25:36.979Z,36.40
2022-12-24T23:28:04.569Z,38.10
2022-12-24T23:30:31.872Z,24.80
2022-12-24T23:32:59.255Z,31.05
2022-12-24T23:35:26.568Z,32.30
2022-12-24T23:37:53.779Z,37.55
2022-12-24T23:40:21.094Z,32.22
2022-12-24T23:42:51.089Z,40.38
2022-12-24T23:45:18.576Z,32.40
2022-12-24T23:47:45.844Z,34.45
2022-12-24T23:50:13.152Z,32.85
2022-12-24T23:52:40.411Z,31.52
2022-12-24T23:55:07.864Z,33.15
2022-12-24T23:57:35.115Z,37.75
